sensor_id;sensor_type;location;lat;lon;timestamp;pressure;altitude;pressure_sealevel;temperature;humidity
59073;BME280;44859;51.934;15.554;2024-03-23T00:55:31;98903.89;;;8.59;100.00
59073;BME280;44859;51.934;15.554;2024-03-23T01:00:34;98903.55;;;8.58;100.00
59073;BME280;44859;51.934;15.554;2024-03-23T01:05:36;98893.84;;;8.57;100.00
59073;BME280;44859;51.934;15.554;2024-03-23T01:10:39;98885.77;;;8.54;100.00
59073;BME280;44859;51.934;15.554;2024-03-23T01:15:49;98884.21;;;8.54;100.00
59073;BME280;44859;51.934;15.554;2024-03-23T01:20:52;98875.45;;;8.54;100.00
59073;BME280;44859;51.934;15.554;2024-03-23T01:25:55;98871.94;;;8.54;100.00
59073;BME280;44859;51.934;15.554;2024-03-23T01:31:01;98864.09;;;8.54;100.00
59073;BME280;44859;51.934;15.554;2024-03-23T01:36:03;98860.16;;;8.56;100.00
59073;BME280;44859;51.934;15.554;2024-03-23T01:41:05;98843.77;;;8.57;100.00
59073;BME280;44859;51.934;15.554;2024-03-23T01:46:08;98838.27;;;8.59;100.00
59073;BME280;44859;51.934;15.554;2024-03-23T01:51:10;98838.52;;;8.60;100.00
59073;BME280;44859;51.934;15.554;2024-03-23T01:56:13;98831.86;;;8.60;100.00
59073;BME280;44859;51.934;15.554;2024-03-23T02:01:15;98826.61;;;8.60;100.00
59073;BME280;44859;51.934;15.554;2024-03-23T02:06:17;98818.18;;;8.61;100.00
59073;BME280;44859;51.934;15.554;2024-03-23T02:11:23;98808.94;;;8.61;100.00
59073;BME280;44859;51.934;15.554;2024-03-23T02:16:46;98808.05;;;8.61;100.00
59073;BME280;44859;51.934;15.554;2024-03-23T02:21:58;98804.92;;;8.60;100.00
59073;BME280;44859;51.934;15.554;2024-03-23T02:27:09;98792.74;;;8.59;100.00
59073;BME280;44859;51.934;15.554;2024-03-23T02:32:18;98784.24;;;8.58;100.00
59073;BME280;44859;51.934;15.554;2024-03-23T02:38:01;98788.04;;;8.59;100.00
59073;BME280;44859;51.934;15.554;2024-03-23T02:43:05;98784.30;;;8.57;100.00
59073;BME280;44859;51.934;15.554;2024-03-23T02:48:07;98786.24;;;8.57;100.00
59073;BME280;44859;51.934;15.554;2024-03-23T02:53:18;98793.15;;;8.55;100.00
59073;BME280;44859;51.934;15.554;2024-03-23T02:58:40;98777.18;;;8.53;100.00
59073;BME280;44859;51.934;15.554;2024-03-23T03:03:46;98766.58;;;8.48;100.00
59073;BME280;44859;51.934;15.554;2024-03-23T03:08:48;98764.54;;;8.41;100.00
59073;BME280;44859;51.934;15.554;2024-03-23T03:14:00;98763.52;;;8.37;100.00
59073;BME280;44859;51.934;15.554;2024-03-23T03:19:40;98762.48;;;8.34;100.00
59073;BME280;44859;51.934;15.554;2024-03-23T03:24:43;98758.99;;;8.30;100.00
59073;BME280;44859;51.934;15.554;2024-03-23T03:29:55;98765.70;;;8.26;100.00
59073;BME280;44859;51.934;15.554;2024-03-23T03:34:57;98757.52;;;8.22;100.00
59073;BME280;44859;51.934;15.554;2024-03-23T03:39:59;98750.66;;;8.20;100.00
59073;BME280;44859;51.934;15.554;2024-03-23T03:45:01;98736.44;;;8.17;100.00
59073;BME280;44859;51.934;15.554;2024-03-23T03:50:15;98735.41;;;8.17;100.00
59073;BME280;44859;51.934;15.554;2024-03-23T03:55:27;98752.77;;;7.61;100.00
59073;BME280;44859;51.934;15.554;2024-03-23T04:00:37;98756.30;;;6.96;100.00
59073;BME280;44859;51.934;15.554;2024-03-23T04:06:03;98744.33;;;6.70;100.00
59073;BME280;44859;51.934;15.554;2024-03-23T04:11:32;98728.02;;;6.54;100.00
59073;BME280;44859;51.934;15.554;2024-03-23T04:16:47;98717.46;;;6.34;100.00
59073;BME280;44859;51.934;15.554;2024-03-23T04:22:04;98711.45;;;6.18;100.00
59073;BME280;44859;51.934;15.554;2024-03-23T04:27:07;98702.27;;;6.13;100.00
59073;BME280;44859;51.934;15.554;2024-03-23T04:32:10;98690.92;;;6.06;100.00
59073;BME280;44859;51.934;15.554;2024-03-23T04:42:37;98705.22;;;6.09;100.00
59073;BME280;44859;51.934;15.554;2024-03-23T04:47:42;98710.48;;;6.13;100.00
59073;BME280;44859;51.934;15.554;2024-03-23T04:52:45;98715.11;;;6.14;100.00
59073;BME280;44859;51.934;15.554;2024-03-23T04:57:49;98726.35;;;6.16;100.00
59073;BME280;44859;51.934;15.554;2024-03-23T05:03:00;98724.86;;;6.14;100.00
59073;BME280;44859;51.934;15.554;2024-03-23T05:08:02;98713.57;;;6.10;100.00
59073;BME280;44859;51.934;15.554;2024-03-23T05:13:06;98686.64;;;6.08;100.00
59073;BME280;44859;51.934;15.554;2024-03-23T05:18:08;98691.37;;;6.07;100.00
59073;BME280;44859;51.934;15.554;2024-03-23T05:23:11;98666.94;;;6.08;100.00
59073;BME280;44859;51.934;15.554;2024-03-23T05:28:13;98662.56;;;6.09;100.00
59073;BME280;44859;51.934;15.554;2024-03-23T05:33:18;98652.11;;;6.05;100.00
59073;BME280;44859;51.934;15.554;2024-03-23T05:38:21;98633.57;;;6.06;100.00
59073;BME280;44859;51.934;15.554;2024-03-23T05:43:23;98615.13;;;6.09;100.00
59073;BME280;44859;51.934;15.554;2024-03-23T05:48:26;98609.55;;;6.09;100.00
59073;BME280;44859;51.934;15.554;2024-03-23T05:53:31;98607.47;;;6.08;100.00
59073;BME280;44859;51.934;15.554;2024-03-23T05:58:34;98600.89;;;6.12;100.00
59073;BME280;44859;51.934;15.554;2024-03-23T06:03:37;98612.98;;;6.14;100.00
59073;BME280;44859;51.934;15.554;2024-03-23T06:08:39;98604.38;;;6.22;100.00
59073;BME280;44859;51.934;15.554;2024-03-23T06:13:42;98601.66;;;6.24;100.00
59073;BME280;44859;51.934;15.554;2024-03-23T06:18:47;98598.40;;;6.23;100.00
59073;BME280;44859;51.934;15.554;2024-03-23T06:23:53;98582.20;;;6.19;100.00
59073;BME280;44859;51.934;15.554;2024-03-23T06:28:55;98569.30;;;6.19;100.00
59073;BME280;44859;51.934;15.554;2024-03-23T06:33:58;98557.35;;;6.25;100.00
59073;BME280;44859;51.934;15.554;2024-03-23T06:39:21;98549.25;;;6.30;100.00
59073;BME280;44859;51.934;15.554;2024-03-23T06:50:34;98528.58;;;6.45;100.00
59073;BME280;44859;51.934;15.554;2024-03-23T06:55:36;98515.73;;;6.61;100.00
59073;BME280;44859;51.934;15.554;2024-03-23T07:12:07;98482.70;;;6.59;100.00
59073;BME280;44859;51.934;15.554;2024-03-23T07:17:09;98472.48;;;6.54;100.00
59073;BME280;44859;51.934;15.554;2024-03-23T07:22:13;98482.11;;;6.63;100.00
59073;BME280;44859;51.934;15.554;2024-03-23T07:27:18;98484.20;;;6.70;100.00
59073;BME280;44859;51.934;15.554;2024-03-23T07:32:22;98475.98;;;6.70;100.00
59073;BME280;44859;51.934;15.554;2024-03-23T07:37:37;98461.20;;;6.57;100.00
59073;BME280;44859;51.934;15.554;2024-03-23T07:42:49;98480.27;;;6.55;100.00
59073;BME280;44859;51.934;15.554;2024-03-23T07:48:00;98470.52;;;6.48;100.00
59073;BME280;44859;51.934;15.554;2024-03-23T07:53:06;98454.04;;;6.53;100.00
59073;BME280;44859;51.934;15.554;2024-03-23T07:58:08;98438.58;;;6.42;100.00
59073;BME280;44859;51.934;15.554;2024-03-23T08:03:10;98437.79;;;6.34;100.00
59073;BME280;44859;51.934;15.554;2024-03-23T08:08:13;98447.64;;;6.36;100.00
59073;BME280;44859;51.934;15.554;2024-03-23T08:13:16;98434.36;;;6.26;100.00
59073;BME280;44859;51.934;15.554;2024-03-23T08:18:27;98413.33;;;6.18;100.00
59073;BME280;44859;51.934;15.554;2024-03-23T08:23:36;98400.90;;;6.16;100.00
59073;BME280;44859;51.934;15.554;2024-03-23T08:28:40;98399.52;;;6.19;100.00
59073;BME280;44859;51.934;15.554;2024-03-23T08:33:43;98392.02;;;6.16;100.00
59073;BME280;44859;51.934;15.554;2024-03-23T08:39:03;98379.05;;;6.10;100.00
59073;BME280;44859;51.934;15.554;2024-03-23T08:44:15;98381.25;;;6.02;100.00
59073;BME280;44859;51.934;15.554;2024-03-23T08:49:41;98371.86;;;6.01;100.00
59073;BME280;44859;51.934;15.554;2024-03-23T08:54:46;98372.74;;;6.01;100.00
59073;BME280;44859;51.934;15.554;2024-03-23T08:59:48;98363.73;;;6.03;100.00
59073;BME280;44859;51.934;15.554;2024-03-23T09:04:52;98349.84;;;6.06;100.00
59073;BME280;44859;51.934;15.554;2024-03-23T09:10:28;98349.45;;;6.10;100.00
59073;BME280;44859;51.934;15.554;2024-03-23T09:15:30;98340.83;;;6.08;100.00
59073;BME280;44859;51.934;15.554;2024-03-23T09:20:33;98327.95;;;6.08;100.00
59073;BME280;44859;51.934;15.554;2024-03-23T09:25:37;98318.13;;;6.16;100.00
59073;BME280;44859;51.934;15.554;2024-03-23T09:30:46;98319.48;;;6.20;100.00
59073;BME280;44859;51.934;15.554;2024-03-23T09:35:51;98300.13;;;6.20;100.00
59073;BME280;44859;51.934;15.554;2024-03-23T09:40:56;98256.16;;;6.17;100.00
59073;BME280;44859;51.934;15.554;2024-03-23T09:46:02;98252.89;;;6.23;100.00
59073;BME280;44859;51.934;15.554;2024-03-23T09:51:04;98224.91;;;6.34;100.00
59073;BME280;44859;51.934;15.554;2024-03-23T09:56:24;98192.66;;;6.43;100.00
59073;BME280;44859;51.934;15.554;2024-03-23T10:01:50;98219.96;;;6.50;100.00
59073;BME280;44859;51.934;15.554;2024-03-23T10:06:52;98235.95;;;6.45;100.00
59073;BME280;44859;51.934;15.554;2024-03-23T10:12:16;98239.19;;;6.43;100.00
59073;BME280;44859;51.934;15.554;2024-03-23T10:17:20;98222.81;;;6.46;100.00
59073;BME280;44859;51.934;15.554;2024-03-23T10:22:39;98212.57;;;6.48;100.00
59073;BME280;44859;51.934;15.554;2024-03-23T10:27:42;98193.41;;;6.57;100.00
59073;BME280;44859;51.934;15.554;2024-03-23T10:32:49;98191.67;;;6.51;100.00
59073;BME280;44859;51.934;15.554;2024-03-23T10:37:53;98182.74;;;6.45;100.00
59073;BME280;44859;51.934;15.554;2024-03-23T10:42:58;98174.08;;;6.42;100.00
59073;BME280;44859;51.934;15.554;2024-03-23T10:48:13;98173.13;;;6.40;100.00
59073;BME280;44859;51.934;15.554;2024-03-23T10:53:26;98171.03;;;6.34;100.00
59073;BME280;44859;51.934;15.554;2024-03-23T10:58:31;98168.10;;;6.27;100.00
59073;BME280;44859;51.934;15.554;2024-03-23T11:03:37;98154.48;;;6.22;100.00
59073;BME280;44859;51.934;15.554;2024-03-23T11:08:40;98142.30;;;6.21;100.00
59073;BME280;44859;51.934;15.554;2024-03-23T11:13:52;98139.42;;;6.25;100.00
59073;BME280;44859;51.934;15.554;2024-03-23T11:25:17;98151.25;;;6.26;100.00
59073;BME280;44859;51.934;15.554;2024-03-23T11:30:24;98163.20;;;6.24;100.00
59073;BME280;44859;51.934;15.554;2024-03-23T11:35:34;98178.27;;;6.29;100.00
59073;BME280;44859;51.934;15.554;2024-03-23T11:40:50;98212.98;;;6.29;100.00
59073;BME280;44859;51.934;15.554;2024-03-23T11:45:53;98256.48;;;6.18;100.00
59073;BME280;44859;51.934;15.554;2024-03-23T11:50:57;98280.52;;;5.69;100.00
59073;BME280;44859;51.934;15.554;2024-03-23T11:56:00;98272.59;;;5.50;100.00
59073;BME280;44859;51.934;15.554;2024-03-23T12:01:03;98281.84;;;5.33;100.00
59073;BME280;44859;51.934;15.554;2024-03-23T12:06:08;98284.48;;;5.23;100.00
59073;BME280;44859;51.934;15.554;2024-03-23T12:11:17;98291.14;;;5.18;100.00
59073;BME280;44859;51.934;15.554;2024-03-23T12:16:20;98318.64;;;5.00;100.00
59073;BME280;44859;51.934;15.554;2024-03-23T12:21:22;98337.50;;;4.63;100.00
59073;BME280;44859;51.934;15.554;2024-03-23T12:26:32;98365.58;;;4.27;100.00
59073;BME280;44859;51.934;15.554;2024-03-23T12:31:53;98382.47;;;4.03;100.00
59073;BME280;44859;51.934;15.554;2024-03-23T12:36:58;98421.58;;;3.90;100.00
59073;BME280;44859;51.934;15.554;2024-03-23T12:47:49;98458.28;;;3.85;100.00
59073;BME280;44859;51.934;15.554;2024-03-23T12:52:51;98465.67;;;3.74;100.00
59073;BME280;44859;51.934;15.554;2024-03-23T12:57:53;98490.70;;;3.74;100.00
59073;BME280;44859;51.934;15.554;2024-03-23T13:02:56;98497.56;;;3.59;100.00
59073;BME280;44859;51.934;15.554;2024-03-23T13:07:59;98484.34;;;3.47;100.00
59073;BME280;44859;51.934;15.554;2024-03-23T13:13:01;98494.89;;;3.39;100.00
59073;BME280;44859;51.934;15.554;2024-03-23T13:18:04;98518.52;;;3.21;100.00
59073;BME280;44859;51.934;15.554;2024-03-23T13:23:06;98547.02;;;3.11;100.00
59073;BME280;44859;51.934;15.554;2024-03-23T13:28:08;98553.02;;;2.99;100.00
59073;BME280;44859;51.934;15.554;2024-03-23T13:33:11;98549.67;;;3.00;100.00
59073;BME280;44859;51.934;15.554;2024-03-23T13:38:14;98571.11;;;3.02;100.00
59073;BME280;44859;51.934;15.554;2024-03-23T13:43:20;98575.48;;;2.96;100.00
59073;BME280;44859;51.934;15.554;2024-03-23T13:48:24;98592.44;;;2.83;100.00
59073;BME280;44859;51.934;15.554;2024-03-23T13:53:27;98615.95;;;2.80;100.00
59073;BME280;44859;51.934;15.554;2024-03-23T13:58:29;98611.70;;;2.82;100.00
59073;BME280;44859;51.934;15.554;2024-03-23T14:03:32;98613.66;;;2.81;100.00
59073;BME280;44859;51.934;15.554;2024-03-23T14:08:35;98611.90;;;2.87;100.00
59073;BME280;44859;51.934;15.554;2024-03-23T14:13:38;98621.92;;;2.98;100.00
59073;BME280;44859;51.934;15.554;2024-03-23T14:18:42;98634.63;;;2.86;100.00
59073;BME280;44859;51.934;15.554;2024-03-23T14:23:48;98652.86;;;2.76;100.00
59073;BME280;44859;51.934;15.554;2024-03-23T14:29:00;98675.81;;;2.89;100.00
59073;BME280;44859;51.934;15.554;2024-03-23T14:34:03;98691.23;;;2.89;100.00
59073;BME280;44859;51.934;15.554;2024-03-23T14:39:25;98672.73;;;2.87;100.00
59073;BME280;44859;51.934;15.554;2024-03-23T14:44:28;98662.57;;;2.96;100.00
59073;BME280;44859;51.934;15.554;2024-03-23T14:49:31;98688.09;;;2.95;100.00
59073;BME280;44859;51.934;15.554;2024-03-23T14:54:33;98681.92;;;2.98;100.00
59073;BME280;44859;51.934;15.554;2024-03-23T14:59:45;98696.10;;;3.08;100.00
59073;BME280;44859;51.934;15.554;2024-03-23T15:04:52;98717.86;;;3.06;100.00
59073;BME280;44859;51.934;15.554;2024-03-23T15:09:59;98722.71;;;3.31;100.00
59073;BME280;44859;51.934;15.554;2024-03-23T15:15:01;98735.59;;;3.64;100.00
59073;BME280;44859;51.934;15.554;2024-03-23T15:20:04;98731.56;;;3.69;100.00
59073;BME280;44859;51.934;15.554;2024-03-23T15:25:08;98739.41;;;3.64;100.00
59073;BME280;44859;51.934;15.554;2024-03-23T15:30:10;98742.06;;;3.63;100.00
59073;BME280;44859;51.934;15.554;2024-03-23T15:35:12;98755.49;;;3.65;100.00
59073;BME280;44859;51.934;15.554;2024-03-23T15:40:15;98747.73;;;3.73;100.00
59073;BME280;44859;51.934;15.554;2024-03-23T15:45:18;98745.55;;;3.66;100.00
59073;BME280;44859;51.934;15.554;2024-03-23T15:50:23;98735.33;;;3.61;100.00
59073;BME280;44859;51.934;15.554;2024-03-23T15:55:26;98732.48;;;3.63;100.00
59073;BME280;44859;51.934;15.554;2024-03-23T16:00:28;98731.70;;;3.70;100.00
59073;BME280;44859;51.934;15.554;2024-03-23T16:05:42;98725.15;;;3.69;100.00
59073;BME280;44859;51.934;15.554;2024-03-23T16:10:51;98738.13;;;3.74;100.00
59073;BME280;44859;51.934;15.554;2024-03-23T16:21:36;98736.08;;;3.73;100.00
59073;BME280;44859;51.934;15.554;2024-03-23T16:26:42;98735.06;;;3.77;100.00
59073;BME280;44859;51.934;15.554;2024-03-23T16:31:47;98731.36;;;3.75;100.00
59073;BME280;44859;51.934;15.554;2024-03-23T16:36:50;98738.63;;;3.75;100.00
59073;BME280;44859;51.934;15.554;2024-03-23T16:41:59;98738.20;;;3.77;100.00
59073;BME280;44859;51.934;15.554;2024-03-23T16:47:04;98739.16;;;3.75;100.00
59073;BME280;44859;51.934;15.554;2024-03-23T16:52:07;98728.64;;;3.69;100.00
59073;BME280;44859;51.934;15.554;2024-03-23T16:57:11;98732.27;;;3.69;100.00
59073;BME280;44859;51.934;15.554;2024-03-23T17:02:13;98724.62;;;3.65;100.00
59073;BME280;44859;51.934;15.554;2024-03-23T17:07:18;98728.48;;;3.59;100.00
59073;BME280;44859;51.934;15.554;2024-03-23T17:12:21;98742.45;;;3.52;100.00
59073;BME280;44859;51.934;15.554;2024-03-23T17:17:24;98740.85;;;3.43;100.00
59073;BME280;44859;51.934;15.554;2024-03-23T17:22:38;98722.77;;;3.34;100.00
59073;BME280;44859;51.934;15.554;2024-03-23T17:27:48;98728.85;;;3.25;100.00
59073;BME280;44859;51.934;15.554;2024-03-23T17:32:51;98732.52;;;3.18;100.00
59073;BME280;44859;51.934;15.554;2024-03-23T17:38:00;98731.14;;;3.14;100.00
59073;BME280;44859;51.934;15.554;2024-03-23T17:43:26;98725.91;;;3.10;100.00
59073;BME280;44859;51.934;15.554;2024-03-23T17:48:48;98724.23;;;3.03;100.00
59073;BME280;44859;51.934;15.554;2024-03-23T17:53:50;98724.91;;;2.99;100.00
59073;BME280;44859;51.934;15.554;2024-03-23T17:58:55;98744.09;;;2.90;100.00
59073;BME280;44859;51.934;15.554;2024-03-23T18:03:58;98759.47;;;2.87;100.00
59073;BME280;44859;51.934;15.554;2024-03-23T18:09:02;98767.82;;;2.86;100.00
59073;BME280;44859;51.934;15.554;2024-03-23T18:14:09;98767.21;;;2.83;100.00
59073;BME280;44859;51.934;15.554;2024-03-23T18:19:12;98758.54;;;2.78;100.00
59073;BME280;44859;51.934;15.554;2024-03-23T18:24:14;98759.70;;;2.75;100.00
59073;BME280;44859;51.934;15.554;2024-03-23T18:29:20;98757.77;;;2.70;100.00
59073;BME280;44859;51.934;15.554;2024-03-23T18:34:23;98764.35;;;2.70;100.00
59073;BME280;44859;51.934;15.554;2024-03-23T18:39:25;98779.06;;;2.71;100.00
59073;BME280;44859;51.934;15.554;2024-03-23T18:44:37;98793.21;;;2.73;100.00
59073;BME280;44859;51.934;15.554;2024-03-23T18:55:11;98801.70;;;2.84;100.00
59073;BME280;44859;51.934;15.554;2024-03-23T19:00:16;98797.56;;;2.83;100.00
59073;BME280;44859;51.934;15.554;2024-03-23T19:05:18;98792.63;;;2.80;100.00
59073;BME280;44859;51.934;15.554;2024-03-23T19:10:20;98793.84;;;2.80;100.00
59073;BME280;44859;51.934;15.554;2024-03-23T19:15:23;98789.72;;;2.79;100.00
59073;BME280;44859;51.934;15.554;2024-03-23T19:20:28;98785.14;;;2.71;100.00
59073;BME280;44859;51.934;15.554;2024-03-23T19:25:31;98783.68;;;2.57;100.00
59073;BME280;44859;51.934;15.554;2024-03-23T19:30:34;98776.65;;;2.49;100.00
59073;BME280;44859;51.934;15.554;2024-03-23T19:35:36;98775.03;;;2.45;100.00
59073;BME280;44859;51.934;15.554;2024-03-23T19:40:38;98782.04;;;2.38;100.00
59073;BME280;44859;51.934;15.554;2024-03-23T19:45:41;98787.58;;;2.27;100.00
59073;BME280;44859;51.934;15.554;2024-03-23T19:50:43;98789.38;;;2.19;100.00
59073;BME280;44859;51.934;15.554;2024-03-23T19:55:53;98781.67;;;2.10;100.00
59073;BME280;44859;51.934;15.554;2024-03-23T20:00:55;98772.85;;;2.05;100.00
59073;BME280;44859;51.934;15.554;2024-03-23T20:06:00;98771.86;;;2.03;100.00
59073;BME280;44859;51.934;15.554;2024-03-23T20:11:03;98774.67;;;2.01;100.00
59073;BME280;44859;51.934;15.554;2024-03-23T20:16:08;98776.89;;;2.02;100.00
59073;BME280;44859;51.934;15.554;2024-03-23T20:21:11;98772.23;;;2.02;100.00
59073;BME280;44859;51.934;15.554;2024-03-23T20:26:26;98764.83;;;2.01;100.00
59073;BME280;44859;51.934;15.554;2024-03-23T20:31:28;98760.14;;;1.95;100.00
59073;BME280;44859;51.934;15.554;2024-03-23T20:36:38;98759.64;;;1.89;100.00
59073;BME280;44859;51.934;15.554;2024-03-23T20:41:43;98756.30;;;1.85;100.00
59073;BME280;44859;51.934;15.554;2024-03-23T20:46:47;98758.01;;;1.79;100.00
59073;BME280;44859;51.934;15.554;2024-03-23T20:51:57;98762.02;;;1.72;100.00
59073;BME280;44859;51.934;15.554;2024-03-23T20:57:11;98761.78;;;1.68;100.00
59073;BME280;44859;51.934;15.554;2024-03-23T21:02:26;98765.66;;;1.72;100.00
59073;BME280;44859;51.934;15.554;2024-03-23T21:07:51;98758.75;;;1.72;100.00
59073;BME280;44859;51.934;15.554;2024-03-23T21:12:53;98759.05;;;1.73;100.00
59073;BME280;44859;51.934;15.554;2024-03-23T21:17:58;98760.95;;;1.73;100.00
59073;BME280;44859;51.934;15.554;2024-03-23T21:23:00;98753.90;;;1.71;100.00
59073;BME280;44859;51.934;15.554;2024-03-23T21:28:18;98758.42;;;1.71;100.00
59073;BME280;44859;51.934;15.554;2024-03-23T21:33:21;98748.88;;;1.72;100.00
59073;BME280;44859;51.934;15.554;2024-03-23T21:38:24;98745.48;;;1.75;100.00
59073;BME280;44859;51.934;15.554;2024-03-23T21:43:32;98741.14;;;1.75;100.00
59073;BME280;44859;51.934;15.554;2024-03-23T21:48:36;98738.00;;;1.71;100.00
59073;BME280;44859;51.934;15.554;2024-03-23T21:53:45;98742.95;;;1.68;100.00
59073;BME280;44859;51.934;15.554;2024-03-23T21:58:47;98733.38;;;1.63;100.00
59073;BME280;44859;51.934;15.554;2024-03-23T22:04:01;98728.79;;;1.60;100.00
59073;BME280;44859;51.934;15.554;2024-03-23T22:09:04;98728.02;;;1.57;100.00
59073;BME280;44859;51.934;15.554;2024-03-23T22:14:07;98723.21;;;1.56;100.00
59073;BME280;44859;51.934;15.554;2024-03-23T22:19:12;98718.42;;;1.54;100.00
59073;BME280;44859;51.934;15.554;2024-03-23T22:24:14;98718.24;;;1.54;100.00
59073;BME280;44859;51.934;15.554;2024-03-23T22:29:16;98719.95;;;1.49;100.00
59073;BME280;44859;51.934;15.554;2024-03-23T22:34:22;98721.62;;;1.45;100.00
59073;BME280;44859;51.934;15.554;2024-03-23T22:39:25;98717.23;;;1.41;100.00
59073;BME280;44859;51.934;15.554;2024-03-23T22:44:34;98713.29;;;1.40;100.00
59073;BME280;44859;51.934;15.554;2024-03-23T22:49:40;98709.88;;;1.38;100.00
59073;BME280;44859;51.934;15.554;2024-03-23T22:54:42;98708.70;;;1.37;100.00
59073;BME280;44859;51.934;15.554;2024-03-23T22:59:53;98708.95;;;1.34;100.00
59073;BME280;44859;51.934;15.554;2024-03-23T23:04:56;98705.04;;;1.38;100.00
59073;BME280;44859;51.934;15.554;2024-03-23T23:10:28;98698.39;;;1.40;100.00
59073;BME280;44859;51.934;15.554;2024-03-23T23:15:30;98695.11;;;1.46;100.00
59073;BME280;44859;51.934;15.554;2024-03-23T23:20:33;98688.39;;;1.57;100.00
59073;BME280;44859;51.934;15.554;2024-03-23T23:25:43;98687.34;;;1.63;100.00
59073;BME280;44859;51.934;15.554;2024-03-23T23:31:01;98682.73;;;1.67;100.00
59073;BME280;44859;51.934;15.554;2024-03-23T23:36:04;98681.54;;;1.66;100.00
59073;BME280;44859;51.934;15.554;2024-03-23T23:41:06;98680.92;;;1.63;100.00
59073;BME280;44859;51.934;15.554;2024-03-23T23:46:08;98683.42;;;1.61;100.00
59073;BME280;44859;51.934;15.554;2024-03-23T23:51:11;98677.34;;;1.56;100.00
59073;BME280;44859;51.934;15.554;2024-03-23T23:56:33;98671.14;;;1.50;100.00
